sensor_id;sensor_type;location;lat;lon;timestamp;temperature;humidity
66740;DHT22;53653;52.188;8.602;2023-04-25T00:00:47;7.06;85.33
66740;DHT22;53653;52.188;8.602;2023-04-25T00:03:13;7.01;85.27
66740;DHT22;53653;52.188;8.602;2023-04-25T00:05:39;7.08;85.34
66740;DHT22;53653;52.188;8.602;2023-04-25T00:08:04;7.07;85.49
66740;DHT22;53653;52.188;8.602;2023-04-25T00:10:31;7.08;85.29
66740;DHT22;53653;52.188;8.602;2023-04-25T00:12:57;7.10;85.29
66740;DHT22;53653;52.188;8.602;2023-04-25T00:15:22;7.08;85.53
66740;DHT22;53653;52.188;8.602;2023-04-25T00:17:49;7.11;85.32
66740;DHT22;53653;52.188;8.602;2023-04-25T00:20:15;7.11;85.60
66740;DHT22;53653;52.188;8.602;2023-04-25T00:22:40;7.14;85.33
66740;DHT22;53653;52.188;8.602;2023-04-25T00:25:06;7.11;85.49
66740;DHT22;53653;52.188;8.602;2023-04-25T00:27:32;7.10;85.63
66740;DHT22;53653;52.188;8.602;2023-04-25T00:29:58;7.10;85.98
66740;DHT22;53653;52.188;8.602;2023-04-25T00:32:25;7.07;86.17
66740;DHT22;53653;52.188;8.602;2023-04-25T00:34:50;7.06;86.38
66740;DHT22;53653;52.188;8.602;2023-04-25T00:37:16;7.07;86.47
66740;DHT22;53653;52.188;8.602;2023-04-25T00:39:41;7.01;86.91
66740;DHT22;53653;52.188;8.602;2023-04-25T00:42:07;7.01;87.27
66740;DHT22;53653;52.188;8.602;2023-04-25T00:44:34;7.03;87.71
66740;DHT22;53653;52.188;8.602;2023-04-25T00:47:02;6.92;88.18
66740;DHT22;53653;52.188;8.602;2023-04-25T00:49:27;6.89;88.67
66740;DHT22;53653;52.188;8.602;2023-04-25T00:51:53;6.89;88.93
66740;DHT22;53653;52.188;8.602;2023-04-25T00:54:19;6.83;89.35
66740;DHT22;53653;52.188;8.602;2023-04-25T00:56:45;6.82;89.43
66740;DHT22;53653;52.188;8.602;2023-04-25T00:59:11;6.79;89.84
66740;DHT22;53653;52.188;8.602;2023-04-25T01:01:38;6.79;90.20
66740;DHT22;53653;52.188;8.602;2023-04-25T01:04:04;6.75;90.25
66740;DHT22;53653;52.188;8.602;2023-04-25T01:06:30;6.72;90.49
66740;DHT22;53653;52.188;8.602;2023-04-25T02:04:07;6.73;92.47
66740;DHT22;53653;52.188;8.602;2023-04-25T02:06:35;6.68;92.51
66740;DHT22;53653;52.188;8.602;2023-04-25T02:09:01;6.71;92.64
66740;DHT22;53653;52.188;8.602;2023-04-25T02:11:26;6.73;92.15
66740;DHT22;53653;52.188;8.602;2023-04-25T02:14:06;6.73;91.85
66740;DHT22;53653;52.188;8.602;2023-04-25T02:16:43;6.76;90.50
66740;DHT22;53653;52.188;8.602;2023-04-25T02:19:09;6.69;90.95
66740;DHT22;53653;52.188;8.602;2023-04-25T02:21:35;6.68;90.87
66740;DHT22;53653;52.188;8.602;2023-04-25T02:24:01;6.71;90.69
66740;DHT22;53653;52.188;8.602;2023-04-25T02:26:27;6.68;91.02
66740;DHT22;53653;52.188;8.602;2023-04-25T02:28:53;6.76;90.77
66740;DHT22;53653;52.188;8.602;2023-04-25T02:31:18;6.75;90.50
66740;DHT22;53653;52.188;8.602;2023-04-25T02:33:44;6.73;90.67
66740;DHT22;53653;52.188;8.602;2023-04-25T02:36:10;6.78;90.37
66740;DHT22;53653;52.188;8.602;2023-04-25T02:38:35;6.80;90.37
66740;DHT22;53653;52.188;8.602;2023-04-25T02:41:03;6.86;89.69
66740;DHT22;53653;52.188;8.602;2023-04-25T02:43:29;6.86;89.33
66740;DHT22;53653;52.188;8.602;2023-04-25T02:45:55;6.82;89.58
66740;DHT22;53653;52.188;8.602;2023-04-25T02:48:20;6.79;89.75
66740;DHT22;53653;52.188;8.602;2023-04-25T02:50:47;6.79;90.02
66740;DHT22;53653;52.188;8.602;2023-04-25T02:53:13;6.80;89.85
66740;DHT22;53653;52.188;8.602;2023-04-25T02:55:44;6.82;89.63
66740;DHT22;53653;52.188;8.602;2023-04-25T02:58:10;6.85;89.42
66740;DHT22;53653;52.188;8.602;2023-04-25T03:00:44;6.85;89.57
66740;DHT22;53653;52.188;8.602;2023-04-25T03:03:10;6.87;89.55
66740;DHT22;53653;52.188;8.602;2023-04-25T03:05:36;6.86;89.46
66740;DHT22;53653;52.188;8.602;2023-04-25T03:08:01;6.89;89.62
66740;DHT22;53653;52.188;8.602;2023-04-25T03:10:27;6.89;89.60
66740;DHT22;53653;52.188;8.602;2023-04-25T03:12:53;6.83;89.73
66740;DHT22;53653;52.188;8.602;2023-04-25T03:15:18;6.83;89.79
66740;DHT22;53653;52.188;8.602;2023-04-25T03:17:44;6.85;89.46
66740;DHT22;53653;52.188;8.602;2023-04-25T03:20:10;6.79;89.52
66740;DHT22;53653;52.188;8.602;2023-04-25T03:22:36;6.76;89.52
66740;DHT22;53653;52.188;8.602;2023-04-25T03:25:01;6.75;89.40
66740;DHT22;53653;52.188;8.602;2023-04-25T03:27:27;6.75;89.17
66740;DHT22;53653;52.188;8.602;2023-04-25T03:29:53;6.75;89.38
66740;DHT22;53653;52.188;8.602;2023-04-25T03:32:18;6.68;89.49
66740;DHT22;53653;52.188;8.602;2023-04-25T03:34:45;6.73;89.43
66740;DHT22;53653;52.188;8.602;2023-04-25T03:37:11;6.73;88.90
66740;DHT22;53653;52.188;8.602;2023-04-25T03:39:37;6.72;88.98
66740;DHT22;53653;52.188;8.602;2023-04-25T03:42:05;6.71;89.27
66740;DHT22;53653;52.188;8.602;2023-04-25T03:44:30;6.64;89.36
66740;DHT22;53653;52.188;8.602;2023-04-25T03:46:56;6.68;89.46
66740;DHT22;53653;52.188;8.602;2023-04-25T03:49:23;6.65;89.60
66740;DHT22;53653;52.188;8.602;2023-04-25T03:51:55;6.71;89.37
66740;DHT22;53653;52.188;8.602;2023-04-25T03:54:21;6.65;89.08
66740;DHT22;53653;52.188;8.602;2023-04-25T03:57:13;6.62;89.50
66740;DHT22;53653;52.188;8.602;2023-04-25T03:59:39;6.58;88.95
66740;DHT22;53653;52.188;8.602;2023-04-25T04:02:06;6.49;89.46
66740;DHT22;53653;52.188;8.602;2023-04-25T04:04:34;6.48;89.27
66740;DHT22;53653;52.188;8.602;2023-04-25T04:07:00;6.52;89.26
66740;DHT22;53653;52.188;8.602;2023-04-25T04:09:29;6.53;89.13
66740;DHT22;53653;52.188;8.602;2023-04-25T04:11:57;6.52;88.87
66740;DHT22;53653;52.188;8.602;2023-04-25T04:14:22;6.51;88.99
66740;DHT22;53653;52.188;8.602;2023-04-25T04:16:51;6.49;89.04
66740;DHT22;53653;52.188;8.602;2023-04-25T04:19:17;6.48;89.28
66740;DHT22;53653;52.188;8.602;2023-04-25T04:21:49;6.49;89.40
66740;DHT22;53653;52.188;8.602;2023-04-25T04:24:15;6.51;88.94
66740;DHT22;53653;52.188;8.602;2023-04-25T04:26:54;6.46;89.06
66740;DHT22;53653;52.188;8.602;2023-04-25T04:29:35;6.42;88.68
66740;DHT22;53653;52.188;8.602;2023-04-25T04:32:10;6.37;88.78
66740;DHT22;53653;52.188;8.602;2023-04-25T04:34:35;6.32;89.03
66740;DHT22;53653;52.188;8.602;2023-04-25T04:37:02;6.34;89.28
66740;DHT22;53653;52.188;8.602;2023-04-25T04:39:28;6.41;89.06
66740;DHT22;53653;52.188;8.602;2023-04-25T04:42:03;6.38;88.57
66740;DHT22;53653;52.188;8.602;2023-04-25T04:44:47;6.41;88.93
66740;DHT22;53653;52.188;8.602;2023-04-25T04:47:25;6.42;88.73
66740;DHT22;53653;52.188;8.602;2023-04-25T04:50:10;6.44;89.08
66740;DHT22;53653;52.188;8.602;2023-04-25T04:52:54;6.48;88.70
66740;DHT22;53653;52.188;8.602;2023-04-25T04:55:39;6.46;88.79
66740;DHT22;53653;52.188;8.602;2023-04-25T04:58:26;6.48;88.68
66740;DHT22;53653;52.188;8.602;2023-04-25T05:01:22;6.49;88.71
66740;DHT22;53653;52.188;8.602;2023-04-25T05:04:07;6.51;88.51
66740;DHT22;53653;52.188;8.602;2023-04-25T05:07:01;6.46;88.10
66740;DHT22;53653;52.188;8.602;2023-04-25T05:09:29;6.45;88.47
66740;DHT22;53653;52.188;8.602;2023-04-25T05:12:11;6.45;88.33
66740;DHT22;53653;52.188;8.602;2023-04-25T05:14:49;6.45;88.43
66740;DHT22;53653;52.188;8.602;2023-04-25T05:17:41;6.48;88.71
66740;DHT22;53653;52.188;8.602;2023-04-25T05:20:36;6.53;88.36
66740;DHT22;53653;52.188;8.602;2023-04-25T05:23:22;6.55;88.12
66740;DHT22;53653;52.188;8.602;2023-04-25T05:26:10;6.59;87.94
66740;DHT22;53653;52.188;8.602;2023-04-25T05:28:57;6.55;87.27
66740;DHT22;53653;52.188;8.602;2023-04-25T05:31:36;6.55;87.66
66740;DHT22;53653;52.188;8.602;2023-04-25T05:34:07;6.56;87.85
66740;DHT22;53653;52.188;8.602;2023-04-25T05:36:45;6.61;87.15
66740;DHT22;53653;52.188;8.602;2023-04-25T05:39:15;6.52;86.78
66740;DHT22;53653;52.188;8.602;2023-04-25T05:42:10;6.58;87.00
66740;DHT22;53653;52.188;8.602;2023-04-25T05:44:55;6.56;86.95
66740;DHT22;53653;52.188;8.602;2023-04-25T05:47:45;6.58;87.09
66740;DHT22;53653;52.188;8.602;2023-04-25T05:50:37;6.61;86.67
66740;DHT22;53653;52.188;8.602;2023-04-25T05:53:22;6.62;86.48
66740;DHT22;53653;52.188;8.602;2023-04-25T05:55:55;6.62;85.93
66740;DHT22;53653;52.188;8.602;2023-04-25T05:58:23;6.65;86.27
66740;DHT22;53653;52.188;8.602;2023-04-25T06:00:49;6.62;85.66
66740;DHT22;53653;52.188;8.602;2023-04-25T06:03:15;6.66;85.69
66740;DHT22;53653;52.188;8.602;2023-04-25T06:05:42;6.72;85.93
66740;DHT22;53653;52.188;8.602;2023-04-25T06:08:08;6.82;86.20
66740;DHT22;53653;52.188;8.602;2023-04-25T06:10:34;6.86;85.82
66740;DHT22;53653;52.188;8.602;2023-04-25T06:12:59;6.95;84.73
66740;DHT22;53653;52.188;8.602;2023-04-25T06:15:25;6.92;84.42
66740;DHT22;53653;52.188;8.602;2023-04-25T06:17:51;6.92;83.90
66740;DHT22;53653;52.188;8.602;2023-04-25T06:20:17;6.99;83.76
66740;DHT22;53653;52.188;8.602;2023-04-25T06:22:42;7.03;83.20
66740;DHT22;53653;52.188;8.602;2023-04-25T06:25:08;6.99;83.06
66740;DHT22;53653;52.188;8.602;2023-04-25T06:27:34;6.97;83.13
66740;DHT22;53653;52.188;8.602;2023-04-25T06:30:03;7.07;83.11
66740;DHT22;53653;52.188;8.602;2023-04-25T06:32:31;7.20;82.85
66740;DHT22;53653;52.188;8.602;2023-04-25T06:34:59;7.23;81.42
66740;DHT22;53653;52.188;8.602;2023-04-25T06:37:25;7.08;81.46
66740;DHT22;53653;52.188;8.602;2023-04-25T06:39:51;7.11;81.84
66740;DHT22;53653;52.188;8.602;2023-04-25T06:42:16;7.20;81.50
66740;DHT22;53653;52.188;8.602;2023-04-25T06:44:51;7.32;80.99
66740;DHT22;53653;52.188;8.602;2023-04-25T06:47:17;7.41;80.91
66740;DHT22;53653;52.188;8.602;2023-04-25T06:49:43;7.38;80.56
66740;DHT22;53653;52.188;8.602;2023-04-25T06:52:09;7.48;80.71
66740;DHT22;53653;52.188;8.602;2023-04-25T06:54:36;7.55;79.89
66740;DHT22;53653;52.188;8.602;2023-04-25T06:57:14;7.64;79.10
66740;DHT22;53653;52.188;8.602;2023-04-25T06:59:40;7.58;78.70
66740;DHT22;53653;52.188;8.602;2023-04-25T07:02:06;7.66;78.77
66740;DHT22;53653;52.188;8.602;2023-04-25T07:04:31;7.86;79.32
66740;DHT22;53653;52.188;8.602;2023-04-25T07:06:58;7.89;77.13
66740;DHT22;53653;52.188;8.602;2023-04-25T07:09:32;7.97;77.32
66740;DHT22;53653;52.188;8.602;2023-04-25T07:12:00;8.09;76.27
66740;DHT22;53653;52.188;8.602;2023-04-25T07:14:27;8.10;76.86
66740;DHT22;53653;52.188;8.602;2023-04-25T07:16:53;8.16;76.71
66740;DHT22;53653;52.188;8.602;2023-04-25T07:19:21;7.82;75.36
66740;DHT22;53653;52.188;8.602;2023-04-25T07:21:46;7.87;75.43
66740;DHT22;53653;52.188;8.602;2023-04-25T07:24:12;7.96;75.14
66740;DHT22;53653;52.188;8.602;2023-04-25T07:26:43;8.14;75.14
66740;DHT22;53653;52.188;8.602;2023-04-25T07:29:21;8.00;74.23
66740;DHT22;53653;52.188;8.602;2023-04-25T07:31:46;8.02;73.31
66740;DHT22;53653;52.188;8.602;2023-04-25T07:34:12;7.85;72.03
66740;DHT22;53653;52.188;8.602;2023-04-25T07:36:38;8.03;72.56
66740;DHT22;53653;52.188;8.602;2023-04-25T07:39:05;8.13;72.54
66740;DHT22;53653;52.188;8.602;2023-04-25T07:41:30;8.19;71.91
66740;DHT22;53653;52.188;8.602;2023-04-25T07:43:56;8.34;72.12
66740;DHT22;53653;52.188;8.602;2023-04-25T07:46:21;8.65;71.82
66740;DHT22;53653;52.188;8.602;2023-04-25T07:48:47;9.20;70.32
66740;DHT22;53653;52.188;8.602;2023-04-25T07:51:13;9.26;68.44
66740;DHT22;53653;52.188;8.602;2023-04-25T07:53:39;9.16;69.00
66740;DHT22;53653;52.188;8.602;2023-04-25T07:56:11;9.18;66.98
66740;DHT22;53653;52.188;8.602;2023-04-25T07:58:39;8.96;68.54
66740;DHT22;53653;52.188;8.602;2023-04-25T08:01:07;9.37;66.06
66740;DHT22;53653;52.188;8.602;2023-04-25T08:03:50;9.81;63.41
66740;DHT22;53653;52.188;8.602;2023-04-25T08:06:29;10.03;61.71
66740;DHT22;53653;52.188;8.602;2023-04-25T08:09:09;9.99;62.12
66740;DHT22;53653;52.188;8.602;2023-04-25T08:11:38;9.46;63.36
66740;DHT22;53653;52.188;8.602;2023-04-25T08:14:05;9.47;63.73
66740;DHT22;53653;52.188;8.602;2023-04-25T08:16:31;10.13;62.74
66740;DHT22;53653;52.188;8.602;2023-04-25T08:18:57;10.70;61.52
66740;DHT22;53653;52.188;8.602;2023-04-25T08:21:23;10.33;60.77
66740;DHT22;53653;52.188;8.602;2023-04-25T08:23:48;9.73;61.74
66740;DHT22;53653;52.188;8.602;2023-04-25T08:26:28;9.11;62.87
66740;DHT22;53653;52.188;8.602;2023-04-25T08:28:54;9.36;60.96
66740;DHT22;53653;52.188;8.602;2023-04-25T08:31:21;9.22;61.98
66740;DHT22;53653;52.188;8.602;2023-04-25T08:33:53;9.08;60.08
66740;DHT22;53653;52.188;8.602;2023-04-25T08:36:26;8.93;59.51
66740;DHT22;53653;52.188;8.602;2023-04-25T08:38:53;8.92;60.87
66740;DHT22;53653;52.188;8.602;2023-04-25T08:41:20;8.88;61.91
66740;DHT22;53653;52.188;8.602;2023-04-25T08:43:48;8.92;62.97
66740;DHT22;53653;52.188;8.602;2023-04-25T08:46:17;8.91;62.40
66740;DHT22;53653;52.188;8.602;2023-04-25T08:49:00;8.84;63.19
66740;DHT22;53653;52.188;8.602;2023-04-25T08:51:26;9.09;63.36
66740;DHT22;53653;52.188;8.602;2023-04-25T08:53:53;9.11;63.13
66740;DHT22;53653;52.188;8.602;2023-04-25T08:56:20;8.96;63.53
66740;DHT22;53653;52.188;8.602;2023-04-25T08:58:49;8.86;62.35
66740;DHT22;53653;52.188;8.602;2023-04-25T09:01:16;9.03;63.12
66740;DHT22;53653;52.188;8.602;2023-04-25T09:03:48;9.18;61.98
66740;DHT22;53653;52.188;8.602;2023-04-25T09:06:14;9.44;61.71
66740;DHT22;53653;52.188;8.602;2023-04-25T09:08:41;9.97;58.89
66740;DHT22;53653;52.188;8.602;2023-04-25T09:11:07;9.65;58.94
66740;DHT22;53653;52.188;8.602;2023-04-25T09:13:33;9.27;60.38
66740;DHT22;53653;52.188;8.602;2023-04-25T09:16:17;9.24;61.18
66740;DHT22;53653;52.188;8.602;2023-04-25T09:19:05;9.16;61.44
66740;DHT22;53653;52.188;8.602;2023-04-25T09:21:34;9.11;62.20
66740;DHT22;53653;52.188;8.602;2023-04-25T09:24:00;9.02;62.37
66740;DHT22;53653;52.188;8.602;2023-04-25T09:26:28;9.01;62.64
66740;DHT22;53653;52.188;8.602;2023-04-25T09:29:06;8.82;62.19
66740;DHT22;53653;52.188;8.602;2023-04-25T09:31:38;8.67;62.51
66740;DHT22;53653;52.188;8.602;2023-04-25T09:34:06;8.43;61.64
66740;DHT22;53653;52.188;8.602;2023-04-25T09:36:41;8.53;62.33
66740;DHT22;53653;52.188;8.602;2023-04-25T09:39:28;8.75;61.83
66740;DHT22;53653;52.188;8.602;2023-04-25T09:42:02;8.71;60.06
66740;DHT22;53653;52.188;8.602;2023-04-25T09:44:29;8.64;60.13
66740;DHT22;53653;52.188;8.602;2023-04-25T09:46:56;8.74;59.93
66740;DHT22;53653;52.188;8.602;2023-04-25T09:49:28;8.85;59.26
66740;DHT22;53653;52.188;8.602;2023-04-25T09:52:03;9.80;58.08
66740;DHT22;53653;52.188;8.602;2023-04-25T09:54:36;10.94;55.51
66740;DHT22;53653;52.188;8.602;2023-04-25T09:57:19;11.76;54.20
66740;DHT22;53653;52.188;8.602;2023-04-25T09:59:48;12.28;52.22
66740;DHT22;53653;52.188;8.602;2023-04-25T10:02:33;12.08;50.90
66740;DHT22;53653;52.188;8.602;2023-04-25T10:05:05;12.34;48.08
66740;DHT22;53653;52.188;8.602;2023-04-25T10:07:38;12.13;49.05
66740;DHT22;53653;52.188;8.602;2023-04-25T10:10:07;11.82;50.03
66740;DHT22;53653;52.188;8.602;2023-04-25T10:12:34;12.75;47.61
66740;DHT22;53653;52.188;8.602;2023-04-25T10:15:00;12.03;49.92
66740;DHT22;53653;52.188;8.602;2023-04-25T10:17:26;11.47;48.86
66740;DHT22;53653;52.188;8.602;2023-04-25T10:19:54;10.84;51.09
66740;DHT22;53653;52.188;8.602;2023-04-25T10:22:42;10.46;52.08
66740;DHT22;53653;52.188;8.602;2023-04-25T10:25:08;10.49;52.49
66740;DHT22;53653;52.188;8.602;2023-04-25T10:27:34;11.18;49.86
66740;DHT22;53653;52.188;8.602;2023-04-25T10:30:07;11.52;50.12
66740;DHT22;53653;52.188;8.602;2023-04-25T10:32:35;11.25;51.10
66740;DHT22;53653;52.188;8.602;2023-04-25T10:35:17;10.81;51.79
66740;DHT22;53653;52.188;8.602;2023-04-25T10:38:11;10.61;52.11
66740;DHT22;53653;52.188;8.602;2023-04-25T10:40:38;10.36;53.14
66740;DHT22;53653;52.188;8.602;2023-04-25T10:45:57;9.88;54.34
66740;DHT22;53653;52.188;8.602;2023-04-25T10:48:28;9.57;53.47
66740;DHT22;53653;52.188;8.602;2023-04-25T10:51:17;9.44;55.38
66740;DHT22;53653;52.188;8.602;2023-04-25T10:56:21;9.19;55.82
66740;DHT22;53653;52.188;8.602;2023-04-25T10:58:47;9.12;55.91
66740;DHT22;53653;52.188;8.602;2023-04-25T11:01:16;9.12;57.29
66740;DHT22;53653;52.188;8.602;2023-04-25T11:03:44;9.18;57.88
66740;DHT22;53653;52.188;8.602;2023-04-25T11:06:22;9.23;57.82
66740;DHT22;53653;52.188;8.602;2023-04-25T11:08:50;9.16;58.67
66740;DHT22;53653;52.188;8.602;2023-04-25T11:11:17;8.99;59.25
66740;DHT22;53653;52.188;8.602;2023-04-25T11:13:43;9.13;60.08
66740;DHT22;53653;52.188;8.602;2023-04-25T11:16:08;9.41;59.47
66740;DHT22;53653;52.188;8.602;2023-04-25T11:18:34;9.75;58.49
66740;DHT22;53653;52.188;8.602;2023-04-25T11:20:59;10.29;57.66
66740;DHT22;53653;52.188;8.602;2023-04-25T11:23:25;10.91;55.43
66740;DHT22;53653;52.188;8.602;2023-04-25T11:25:52;11.32;54.50
66740;DHT22;53653;52.188;8.602;2023-04-25T11:28:22;11.04;53.21
66740;DHT22;53653;52.188;8.602;2023-04-25T11:30:48;10.94;52.52
66740;DHT22;53653;52.188;8.602;2023-04-25T11:33:16;10.60;53.31
66740;DHT22;53653;52.188;8.602;2023-04-25T11:35:41;10.61;54.45
66740;DHT22;53653;52.188;8.602;2023-04-25T11:38:06;10.39;54.59
66740;DHT22;53653;52.188;8.602;2023-04-25T11:40:32;10.23;54.80
66740;DHT22;53653;52.188;8.602;2023-04-25T11:43:00;9.95;54.93
66740;DHT22;53653;52.188;8.602;2023-04-25T11:45:26;9.80;56.19
66740;DHT22;53653;52.188;8.602;2023-04-25T11:47:52;9.71;56.88
66740;DHT22;53653;52.188;8.602;2023-04-25T11:50:17;9.64;57.65
66740;DHT22;53653;52.188;8.602;2023-04-25T11:52:45;9.78;58.53
66740;DHT22;53653;52.188;8.602;2023-04-25T11:55:15;9.78;57.25
66740;DHT22;53653;52.188;8.602;2023-04-25T11:57:43;10.11;57.57
66740;DHT22;53653;52.188;8.602;2023-04-25T12:00:10;10.26;55.59
66740;DHT22;53653;52.188;8.602;2023-04-25T12:02:40;10.61;54.71
66740;DHT22;53653;52.188;8.602;2023-04-25T12:05:07;10.36;52.87
66740;DHT22;53653;52.188;8.602;2023-04-25T12:07:34;11.03;52.37
66740;DHT22;53653;52.188;8.602;2023-04-25T12:10:03;11.18;52.75
66740;DHT22;53653;52.188;8.602;2023-04-25T12:12:32;10.96;51.66
66740;DHT22;53653;52.188;8.602;2023-04-25T12:15:08;10.88;52.71
66740;DHT22;53653;52.188;8.602;2023-04-25T12:17:34;11.53;52.68
66740;DHT22;53653;52.188;8.602;2023-04-25T12:20:06;11.84;50.85
66740;DHT22;53653;52.188;8.602;2023-04-25T12:22:32;12.05;50.00
66740;DHT22;53653;52.188;8.602;2023-04-25T12:24:58;11.77;49.71
66740;DHT22;53653;52.188;8.602;2023-04-25T12:27:25;11.56;49.33
66740;DHT22;53653;52.188;8.602;2023-04-25T12:29:53;11.39;50.35
66740;DHT22;53653;52.188;8.602;2023-04-25T12:32:19;11.29;51.71
66740;DHT22;53653;52.188;8.602;2023-04-25T12:34:44;11.18;51.81
66740;DHT22;53653;52.188;8.602;2023-04-25T12:37:10;10.88;51.79
66740;DHT22;53653;52.188;8.602;2023-04-25T12:39:36;10.50;52.95
66740;DHT22;53653;52.188;8.602;2023-04-25T12:42:01;10.46;53.37
66740;DHT22;53653;52.188;8.602;2023-04-25T12:44:28;10.56;54.09
66740;DHT22;53653;52.188;8.602;2023-04-25T12:46:53;10.67;54.46
66740;DHT22;53653;52.188;8.602;2023-04-25T12:49:20;10.43;54.63
66740;DHT22;53653;52.188;8.602;2023-04-25T12:51:45;10.38;55.32
66740;DHT22;53653;52.188;8.602;2023-04-25T12:54:10;10.29;55.89
66740;DHT22;53653;52.188;8.602;2023-04-25T12:56:36;10.20;56.99
66740;DHT22;53653;52.188;8.602;2023-04-25T12:59:02;10.18;57.47
66740;DHT22;53653;52.188;8.602;2023-04-25T13:01:30;10.19;57.65
66740;DHT22;53653;52.188;8.602;2023-04-25T13:03:56;10.60;57.80
66740;DHT22;53653;52.188;8.602;2023-04-25T13:06:22;10.90;58.19
66740;DHT22;53653;52.188;8.602;2023-04-25T13:08:47;10.87;56.31
66740;DHT22;53653;52.188;8.602;2023-04-25T13:11:13;10.78;56.05
66740;DHT22;53653;52.188;8.602;2023-04-25T13:13:43;10.60;54.73
66740;DHT22;53653;52.188;8.602;2023-04-25T13:16:09;10.26;49.41
66740;DHT22;53653;52.188;8.602;2023-04-25T13:18:35;10.03;50.35
66740;DHT22;53653;52.188;8.602;2023-04-25T13:21:00;10.01;51.54
66740;DHT22;53653;52.188;8.602;2023-04-25T13:23:27;10.22;53.03
66740;DHT22;53653;52.188;8.602;2023-04-25T13:25:53;10.12;52.66
66740;DHT22;53653;52.188;8.602;2023-04-25T13:28:20;9.88;51.96
66740;DHT22;53653;52.188;8.602;2023-04-25T13:30:46;9.77;53.65
66740;DHT22;53653;52.188;8.602;2023-04-25T13:33:13;9.55;55.52
66740;DHT22;53653;52.188;8.602;2023-04-25T13:35:39;9.57;57.13
66740;DHT22;53653;52.188;8.602;2023-04-25T13:38:05;9.60;56.81
66740;DHT22;53653;52.188;8.602;2023-04-25T13:40:30;9.65;56.73
66740;DHT22;53653;52.188;8.602;2023-04-25T13:42:57;10.13;56.68
66740;DHT22;53653;52.188;8.602;2023-04-25T13:45:24;10.66;56.55
66740;DHT22;53653;52.188;8.602;2023-04-25T13:47:50;10.80;53.68
66740;DHT22;53653;52.188;8.602;2023-04-25T13:50:16;10.88;53.46
66740;DHT22;53653;52.188;8.602;2023-04-25T13:52:42;10.91;54.02
66740;DHT22;53653;52.188;8.602;2023-04-25T13:55:08;11.01;53.92
66740;DHT22;53653;52.188;8.602;2023-04-25T13:57:40;11.01;54.33
66740;DHT22;53653;52.188;8.602;2023-04-25T14:00:07;10.81;54.53
66740;DHT22;53653;52.188;8.602;2023-04-25T14:02:35;10.81;55.07
66740;DHT22;53653;52.188;8.602;2023-04-25T14:05:01;10.85;54.48
66740;DHT22;53653;52.188;8.602;2023-04-25T14:07:27;10.48;54.51
66740;DHT22;53653;52.188;8.602;2023-04-25T14:09:52;10.48;56.42
66740;DHT22;53653;52.188;8.602;2023-04-25T14:12:18;10.71;56.67
66740;DHT22;53653;52.188;8.602;2023-04-25T14:14:43;10.91;57.17
66740;DHT22;53653;52.188;8.602;2023-04-25T14:17:10;10.98;56.84
66740;DHT22;53653;52.188;8.602;2023-04-25T14:19:36;10.93;56.44
66740;DHT22;53653;52.188;8.602;2023-04-25T14:22:03;11.07;57.45
66740;DHT22;53653;52.188;8.602;2023-04-25T14:24:29;11.11;56.29
66740;DHT22;53653;52.188;8.602;2023-04-25T14:26:54;11.28;55.56
66740;DHT22;53653;52.188;8.602;2023-04-25T14:29:20;11.26;55.24
66740;DHT22;53653;52.188;8.602;2023-04-25T14:31:46;10.98;54.15
66740;DHT22;53653;52.188;8.602;2023-04-25T14:34:12;10.84;54.59
66740;DHT22;53653;52.188;8.602;2023-04-25T14:36:38;10.70;54.83
66740;DHT22;53653;52.188;8.602;2023-04-25T14:39:03;10.78;54.87
66740;DHT22;53653;52.188;8.602;2023-04-25T14:41:30;10.78;53.36
66740;DHT22;53653;52.188;8.602;2023-04-25T14:43:55;10.90;53.46
66740;DHT22;53653;52.188;8.602;2023-04-25T14:46:22;10.96;53.41
66740;DHT22;53653;52.188;8.602;2023-04-25T14:48:48;10.87;53.45
66740;DHT22;53653;52.188;8.602;2023-04-25T14:51:15;10.59;53.70
66740;DHT22;53653;52.188;8.602;2023-04-25T14:53:41;10.60;55.02
66740;DHT22;53653;52.188;8.602;2023-04-25T14:56:06;9.97;58.77
66740;DHT22;53653;52.188;8.602;2023-04-25T14:58:32;9.48;61.88
66740;DHT22;53653;52.188;8.602;2023-04-25T15:00:58;9.26;63.27
66740;DHT22;53653;52.188;8.602;2023-04-25T15:03:24;9.08;63.39
66740;DHT22;53653;52.188;8.602;2023-04-25T15:05:49;9.05;64.99
66740;DHT22;53653;52.188;8.602;2023-04-25T15:08:15;9.29;63.89
66740;DHT22;53653;52.188;8.602;2023-04-25T15:10:40;9.11;62.14
66740;DHT22;53653;52.188;8.602;2023-04-25T15:13:06;8.95;62.98
66740;DHT22;53653;52.188;8.602;2023-04-25T15:15:32;8.82;63.67
66740;DHT22;53653;52.188;8.602;2023-04-25T15:17:58;8.81;64.26
66740;DHT22;53653;52.188;8.602;2023-04-25T15:20:23;8.78;64.68
66740;DHT22;53653;52.188;8.602;2023-04-25T15:22:49;8.78;64.89
66740;DHT22;53653;52.188;8.602;2023-04-25T15:25:16;8.84;65.60
66740;DHT22;53653;52.188;8.602;2023-04-25T15:27:43;8.95;65.70
66740;DHT22;53653;52.188;8.602;2023-04-25T15:30:10;9.09;64.17
66740;DHT22;53653;52.188;8.602;2023-04-25T15:32:41;9.30;63.35
66740;DHT22;53653;52.188;8.602;2023-04-25T15:35:07;9.53;63.02
66740;DHT22;53653;52.188;8.602;2023-04-25T15:37:34;9.78;61.44
66740;DHT22;53653;52.188;8.602;2023-04-25T15:40:07;9.92;59.71
66740;DHT22;53653;52.188;8.602;2023-04-25T15:42:52;9.78;59.38
66740;DHT22;53653;52.188;8.602;2023-04-25T15:45:23;9.85;59.83
66740;DHT22;53653;52.188;8.602;2023-04-25T15:47:50;10.01;58.51
66740;DHT22;53653;52.188;8.602;2023-04-25T15:50:18;10.08;57.35
66740;DHT22;53653;52.188;8.602;2023-04-25T15:52:44;9.71;57.85
66740;DHT22;53653;52.188;8.602;2023-04-25T15:55:09;9.58;59.73
66740;DHT22;53653;52.188;8.602;2023-04-25T15:57:36;9.61;59.61
66740;DHT22;53653;52.188;8.602;2023-04-25T16:00:03;9.32;61.03
66740;DHT22;53653;52.188;8.602;2023-04-25T16:02:40;8.51;63.86
66740;DHT22;53653;52.188;8.602;2023-04-25T16:05:07;8.20;64.60
66740;DHT22;53653;52.188;8.602;2023-04-25T16:07:33;7.92;65.57
66740;DHT22;53653;52.188;8.602;2023-04-25T16:09:59;7.72;65.78
66740;DHT22;53653;52.188;8.602;2023-04-25T16:12:25;7.64;67.47
66740;DHT22;53653;52.188;8.602;2023-04-25T16:14:53;7.58;68.13
66740;DHT22;53653;52.188;8.602;2023-04-25T16:17:19;7.74;68.88
66740;DHT22;53653;52.188;8.602;2023-04-25T16:19:45;7.89;67.80
66740;DHT22;53653;52.188;8.602;2023-04-25T16:22:10;8.09;67.13
66740;DHT22;53653;52.188;8.602;2023-04-25T16:24:40;8.32;65.90
66740;DHT22;53653;52.188;8.602;2023-04-25T16:27:05;8.43;64.23
66740;DHT22;53653;52.188;8.602;2023-04-25T16:29:31;8.47;63.57
66740;DHT22;53653;52.188;8.602;2023-04-25T16:31:56;8.51;62.68
66740;DHT22;53653;52.188;8.602;2023-04-25T16:34:21;8.63;62.78
66740;DHT22;53653;52.188;8.602;2023-04-25T16:36:48;8.78;61.92
66740;DHT22;53653;52.188;8.602;2023-04-25T16:39:13;8.91;61.81
66740;DHT22;53653;52.188;8.602;2023-04-25T16:41:39;8.98;62.68
66740;DHT22;53653;52.188;8.602;2023-04-25T16:44:05;9.05;62.08
66740;DHT22;53653;52.188;8.602;2023-04-25T16:46:33;9.18;61.62
66740;DHT22;53653;52.188;8.602;2023-04-25T16:48:59;9.22;61.94
66740;DHT22;53653;52.188;8.602;2023-04-25T16:51:25;9.19;62.30
66740;DHT22;53653;52.188;8.602;2023-04-25T16:53:52;9.30;61.56